Time;durP1;ratioP1;P1;durP2;ratioP2;P2;SDS_P1;SDS_P2;PMS_P1;PMS_P2;Temp;Humidity;BMP_temperature;BMP_pressure;BME280_temperature;BME280_humidity;BME280_pressure;Samples;Min_cycle;Max_cycle;Signal;HPM_P1;HPM_P2
2023/11/04 00:00:31;;;;;;;;;;;;;;;;;;109340;1250;59750;-81
2023/11/04 00:03:17;;;;;;;;;;;;;;;;;;109429;1250;63114;-80
2023/11/04 00:05:45;;;;;;;;;;;;;;;;;;109569;1250;59586;-80
2023/11/04 00:08:12;;;;;;;;;;;;;;;;;;109568;1250;59563;-80
2023/11/04 00:10:39;;;;;;;;;;;;;;;;;;109562;1250;59283;-80
2023/11/04 00:13:06;;;;;;;;;;;;;;;;;;109605;1249;59238;-80
2023/11/04 00:15:32;;;;;;;;;;;;;;;;;;109610;1250;60687;-81
2023/11/04 00:17:59;;;;;;;;;;;;;;;;;;109549;1249;59738;-80
2023/11/04 00:20:28;;;;;;;;;;;;;;;;;;109574;1250;59262;-81
2023/11/04 00:22:54;;;;;;;;;;;;;;;;;;109597;1249;59702;-81
2023/11/04 00:25:21;;;;;;;;;;;;;;;;;;109584;1249;59083;-81
2023/11/04 00:27:47;;;;;;;;;;;;;;;;;;109586;1249;59847;-80
2023/11/04 00:30:13;;;;;;;;;;;;;;;;;;109592;1250;59685;-80
2023/11/04 00:32:40;;;;;;;;;;;;;;;;;;109565;1249;59028;-80
2023/11/04 00:35:06;;;;;;;;;;;;;;;;;;109572;1250;59174;-80
2023/11/04 00:37:32;;;;;;;;;;;;;;;;;;109611;1249;59209;-80
2023/11/04 00:40:05;;;;;;;;;;;;;;;;;;109607;1253;59684;-80
2023/11/04 00:42:32;;;;;;;;;;;;;;;;;;109575;1249;59557;-81
2023/11/04 00:44:58;;;;;;;;;;;;;;;;;;109589;1249;59315;-81
2023/11/04 00:47:24;;;;;;;;;;;;;;;;;;109492;1251;59189;-80
2023/11/04 00:49:51;;;;;;;;;;;;;;;;;;109507;1250;59663;-80
2023/11/04 00:52:17;;;;;;;;;;;;;;;;;;109502;1250;59740;-81
2023/11/04 00:54:43;;;;;;;;;;;;;;;;;;109494;1250;59039;-80
2023/11/04 00:57:10;;;;;;;;;;;;;;;;;;109405;1250;59412;-82
2023/11/04 00:59:36;;;;;;;;;;;;;;;;;;109463;1250;59653;-81
2023/11/04 01:02:02;;;;;;;;;;;;;;;;;;109455;1250;59020;-80
2023/11/04 01:04:29;;;;;;;;;;;;;;;;;;109481;1249;59413;-80
2023/11/04 01:06:55;;;;;;;;;;;;;;;;;;109581;1251;59035;-80
2023/11/04 01:09:21;;;;;;;;;;;;;;;;;;109591;1250;59639;-80
2023/11/04 01:11:49;;;;;;;;;;;;;;;;;;109589;1250;59271;-80
2023/11/04 01:14:15;;;;;;;;;;;;;;;;;;109469;1250;142959;-80
2023/11/04 01:16:42;;;;;;;;;;;;;;;;;;109586;1250;59782;-81
2023/11/04 01:19:08;;;;;;;;;;;;;;;;;;109622;1250;59287;-81
2023/11/04 01:21:35;;;;;;;;;;;;;;;;;;109560;1250;59668;-80
2023/11/04 01:24:01;;;;;;;;;;;;;;;;;;109620;1250;59102;-81
2023/11/04 01:26:27;;;;;;;;;;;;;;;;;;109574;1249;59012;-80
2023/11/04 01:28:54;;;;;;;;;;;;;;;;;;109586;1250;59144;-80
2023/11/04 01:31:20;;;;;;;;;;;;;;;;;;109586;1250;59385;-80
2023/11/04 01:33:46;;;;;;;;;;;;;;;;;;109608;1250;59821;-80
2023/11/04 01:36:13;;;;;;;;;;;;;;;;;;109580;1249;59108;-80
2023/11/04 01:38:39;;;;;;;;;;;;;;;;;;109571;1250;59710;-80
2023/11/04 01:41:05;;;;;;;;;;;;;;;;;;109542;1251;59708;-81
2023/11/04 01:43:32;;;;;;;;;;;;;;;;;;109579;1250;59413;-80
2023/11/04 01:45:58;;;;;;;;;;;;;;;;;;109579;1250;58990;-80
2023/11/04 01:48:24;;;;;;;;;;;;;;;;;;109475;1250;59758;-80
2023/11/04 01:50:51;;;;;;;;;;;;;;;;;;109408;1251;59134;-80
2023/11/04 01:53:17;;;;;;;;;;;;;;;;;;109415;1250;59030;-80
2023/11/04 01:55:43;;;;;;;;;;;;;;;;;;109470;1250;59675;-80
2023/11/04 01:58:10;;;;;;;;;;;;;;;;;;109451;1251;59067;-80
2023/11/04 02:00:36;;;;;;;;;;;;;;;;;;109450;1250;59739;-80
2023/11/04 02:03:02;;;;;;;;;;;;;;;;;;109493;1250;59649;-80
2023/11/04 02:05:29;;;;;;;;;;;;;;;;;;109514;1250;59118;-80
2023/11/04 02:07:55;;;;;;;;;;;;;;;;;;109437;1251;59272;-81
2023/11/04 02:10:22;;;;;;;;;;;;;;;;;;109429;1251;59121;-80
2023/11/04 02:12:48;;;;;;;;;;;;;;;;;;109489;1251;58992;-80
2023/11/04 02:15:15;;;;;;;;;;;;;;;;;;109463;1251;59301;-80
2023/11/04 02:17:41;;;;;;;;;;;;;;;;;;109430;1251;58898;-80
2023/11/04 02:20:07;;;;;;;;;;;;;;;;;;109438;1250;59676;-81
2023/11/04 02:22:34;;;;;;;;;;;;;;;;;;109488;1250;59493;-80
2023/11/04 02:25:01;;;;;;;;;;;;;;;;;;109498;1250;59459;-80
2023/11/04 02:27:27;;;;;;;;;;;;;;;;;;109466;1251;58936;-80
2023/11/04 02:29:54;;;;;;;;;;;;;;;;;;109462;1250;59101;-80
2023/11/04 02:32:20;;;;;;;;;;;;;;;;;;109408;1251;58948;-80
2023/11/04 02:34:46;;;;;;;;;;;;;;;;;;109452;1251;59406;-80
2023/11/04 02:37:13;;;;;;;;;;;;;;;;;;109489;1250;59903;-80
2023/11/04 02:39:39;;;;;;;;;;;;;;;;;;109461;1250;59682;-80
2023/11/04 02:42:05;;;;;;;;;;;;;;;;;;109455;1250;59359;-80
2023/11/04 02:44:32;;;;;;;;;;;;;;;;;;109457;1250;59653;-80
2023/11/04 02:46:59;;;;;;;;;;;;;;;;;;109464;1251;59073;-80
2023/11/04 02:49:25;;;;;;;;;;;;;;;;;;109445;1250;59022;-80
2023/11/04 02:51:52;;;;;;;;;;;;;;;;;;109469;1250;59533;-80
2023/11/04 02:54:18;;;;;;;;;;;;;;;;;;109491;1250;59078;-80
2023/11/04 02:56:44;;;;;;;;;;;;;;;;;;109451;1251;59025;-80
2023/11/04 02:59:11;;;;;;;;;;;;;;;;;;109441;1250;59095;-80
2023/11/04 03:01:37;;;;;;;;;;;;;;;;;;109457;1250;59321;-80
2023/11/04 03:04:06;;;;;;;;;;;;;;;;;;109511;1251;59088;-81
2023/11/04 03:06:33;;;;;;;;;;;;;;;;;;109566;1251;59026;-80
2023/11/04 03:08:59;;;;;;;;;;;;;;;;;;109588;1249;59595;-80
2023/11/04 03:11:25;;;;;;;;;;;;;;;;;;109538;1250;59731;-80
2023/11/04 03:13:53;;;;;;;;;;;;;;;;;;109578;1250;59107;-80
2023/11/04 03:16:19;;;;;;;;;;;;;;;;;;109583;1249;62631;-80
2023/11/04 03:18:45;;;;;;;;;;;;;;;;;;109537;1250;59776;-80
2023/11/04 03:21:12;;;;;;;;;;;;;;;;;;109577;1250;58991;-80
2023/11/04 03:23:39;;;;;;;;;;;;;;;;;;109555;1251;58989;-80
2023/11/04 03:26:07;;;;;;;;;;;;;;;;;;109566;1250;58972;-79
2023/11/04 03:28:34;;;;;;;;;;;;;;;;;;109578;1250;60818;-80
2023/11/04 03:31:00;;;;;;;;;;;;;;;;;;109557;1251;59234;-80
2023/11/04 03:33:27;;;;;;;;;;;;;;;;;;109526;1250;60248;-80
2023/11/04 03:35:54;;;;;;;;;;;;;;;;;;109541;1250;59209;-81
2023/11/04 03:38:20;;;;;;;;;;;;;;;;;;109389;1250;59016;-80
2023/11/04 03:40:46;;;;;;;;;;;;;;;;;;109471;1250;59151;-80
2023/11/04 03:43:13;;;;;;;;;;;;;;;;;;109596;1250;59000;-80
2023/11/04 03:45:39;;;;;;;;;;;;;;;;;;109549;1250;59615;-80
2023/11/04 03:48:05;;;;;;;;;;;;;;;;;;109521;1251;59649;-80
2023/11/04 03:50:32;;;;;;;;;;;;;;;;;;109447;1251;59622;-80
2023/11/04 03:52:58;;;;;;;;;;;;;;;;;;109519;1251;59012;-80
2023/11/04 03:55:24;;;;;;;;;;;;;;;;;;109370;1251;59693;-80
2023/11/04 03:57:52;;;;;;;;;;;;;;;;;;109457;1251;59321;-80
2023/11/04 04:00:19;;;;;;;;;;;;;;;;;;109411;1254;59633;-81
2023/11/04 04:02:45;;;;;;;;;;;;;;;;;;109424;1250;59119;-81
2023/11/04 04:05:12;;;;;;;;;;;;;;;;;;109365;1251;59332;-80
2023/11/04 04:07:38;;;;;;;;;;;;;;;;;;109465;1250;59341;-80
2023/11/04 04:10:05;;;;;;;;;;;;;;;;;;109483;1251;59217;-80
2023/11/04 04:12:31;;;;;;;;;;;;;;;;;;109441;1250;60217;-80
2023/11/04 04:14:58;;;;;;;;;;;;;;;;;;109469;1250;59650;-80
2023/11/04 04:17:24;;;;;;;;;;;;;;;;;;109479;1250;59723;-80
2023/11/04 04:19:50;;;;;;;;;;;;;;;;;;109480;1251;59022;-80
2023/11/04 04:22:17;;;;;;;;;;;;;;;;;;109462;1251;59692;-82
2023/11/04 04:24:43;;;;;;;;;;;;;;;;;;109442;1250;59896;-80
2023/11/04 04:27:09;;;;;;;;;;;;;;;;;;109493;1250;59030;-80
2023/11/04 04:29:36;;;;;;;;;;;;;;;;;;109459;1251;59022;-81
2023/11/04 04:32:02;;;;;;;;;;;;;;;;;;109455;1250;59573;-81
2023/11/04 04:34:28;;;;;;;;;;;;;;;;;;109440;1250;59443;-80
2023/11/04 04:36:57;;;;;;;;;;;;;;;;;;109493;1251;59251;-80
2023/11/04 04:39:23;;;;;;;;;;;;;;;;;;109448;1251;59133;-80
2023/11/04 04:41:49;;;;;;;;;;;;;;;;;;109472;1250;59209;-80
2023/11/04 04:44:16;;;;;;;;;;;;;;;;;;109472;1250;59290;-80
2023/11/04 04:46:43;;;;;;;;;;;;;;;;;;109450;1251;59992;-80
2023/11/04 04:49:09;;;;;;;;;;;;;;;;;;109484;1250;59137;-80
2023/11/04 04:51:36;;;;;;;;;;;;;;;;;;109481;1250;59725;-80
2023/11/04 04:54:03;;;;;;;;;;;;;;;;;;109483;1250;59467;-80
2023/11/04 04:56:29;;;;;;;;;;;;;;;;;;109557;1251;59530;-80
2023/11/04 04:58:56;;;;;;;;;;;;;;;;;;109499;1251;59435;-80
2023/11/04 05:01:22;;;;;;;;;;;;;;;;;;109468;1250;59712;-80
2023/11/04 05:03:48;;;;;;;;;;;;;;;;;;109484;1250;59059;-80
2023/11/04 05:06:15;;;;;;;;;;;;;;;;;;109489;1250;59034;-81
2023/11/04 05:08:41;;;;;;;;;;;;;;;;;;109453;1251;59033;-81
2023/11/04 05:11:08;;;;;;;;;;;;;;;;;;109469;1250;59593;-80
2023/11/04 05:13:35;;;;;;;;;;;;;;;;;;109423;1251;59549;-80
2023/11/04 05:16:01;;;;;;;;;;;;;;;;;;109492;1250;59109;-80
2023/11/04 05:18:28;;;;;;;;;;;;;;;;;;109485;1251;59508;-80
2023/11/04 05:20:56;;;;;;;;;;;;;;;;;;109523;1250;59046;-80
2023/11/04 05:23:22;;;;;;;;;;;;;;;;;;109459;1250;60777;-80
2023/11/04 05:25:49;;;;;;;;;;;;;;;;;;109479;1254;59314;-80
2023/11/04 05:28:16;;;;;;;;;;;;;;;;;;109463;1251;59176;-81
2023/11/04 05:30:42;;;;;;;;;;;;;;;;;;109475;1251;58973;-81
2023/11/04 05:33:09;;;;;;;;;;;;;;;;;;109490;1250;59098;-81
2023/11/04 05:35:36;;;;;;;;;;;;;;;;;;109498;1250;59187;-80
2023/11/04 05:38:03;;;;;;;;;;;;;;;;;;109486;1251;58979;-80
2023/11/04 05:40:31;;;;;;;;;;;;;;;;;;109479;1251;59233;-80
2023/11/04 05:42:58;;;;;;;;;;;;;;;;;;109466;1250;61948;-80
2023/11/04 05:45:24;;;;;;;;;;;;;;;;;;109489;1251;59033;-80
2023/11/04 05:47:50;;;;;;;;;;;;;;;;;;109445;1251;59871;-80
2023/11/04 05:50:17;;;;;;;;;;;;;;;;;;109490;1250;59616;-80
2023/11/04 05:52:44;;;;;;;;;;;;;;;;;;109467;1250;59773;-81
2023/11/04 05:55:14;;;;;;;;;;;;;;;;;;109482;1251;60845;-80
2023/11/04 05:57:40;;;;;;;;;;;;;;;;;;109483;1250;59283;-82
2023/11/04 06:00:11;;;;;;;;;;;;;;;;;;109479;1251;59365;-80
2023/11/04 06:02:37;;;;;;;;;;;;;;;;;;109422;1250;59681;-80
2023/11/04 06:05:04;;;;;;;;;;;;;;;;;;109498;1250;59698;-80
2023/11/04 06:07:30;;;;;;;;;;;;;;;;;;109534;1251;59270;-80
2023/11/04 06:09:56;;;;;;;;;;;;;;;;;;109560;1250;59401;-80
2023/11/04 06:12:23;;;;;;;;;;;;;;;;;;109382;1251;59641;-80
2023/11/04 06:14:49;;;;;;;;;;;;;;;;;;109372;1250;59707;-80
2023/11/04 06:17:16;;;;;;;;;;;;;;;;;;109573;1250;59697;-80
2023/11/04 06:19:42;;;;;;;;;;;;;;;;;;109566;1251;59085;-81
2023/11/04 06:22:09;;;;;;;;;;;;;;;;;;109538;1250;59685;-80
2023/11/04 06:24:35;;;;;;;;;;;;;;;;;;109535;1253;59667;-80
2023/11/04 06:27:02;;;;;;;;;;;;;;;;;;109521;1251;59714;-80
2023/11/04 06:29:28;;;;;;;;;;;;;;;;;;109527;1250;59103;-80
2023/11/04 06:31:54;;;;;;;;;;;;;;;;;;109563;1251;59476;-80
2023/11/04 06:34:21;;;;;;;;;;;;;;;;;;109574;1251;59769;-80
2023/11/04 06:36:47;;;;;;;;;;;;;;;;;;109569;1250;59032;-80
2023/11/04 06:39:14;;;;;;;;;;;;;;;;;;109541;1251;59201;-81
2023/11/04 06:41:40;;;;;;;;;;;;;;;;;;109524;1251;59305;-80
2023/11/04 06:44:06;;;;;;;;;;;;;;;;;;109513;1250;58975;-80
2023/11/04 06:46:33;;;;;;;;;;;;;;;;;;109497;1250;59160;-81
2023/11/04 06:48:59;;;;;;;;;;;;;;;;;;109448;1250;59779;-80
2023/11/04 06:51:26;;;;;;;;;;;;;;;;;;109415;1251;59629;-81
2023/11/04 06:53:56;;;;;;;;;;;;;;;;;;109444;1251;59402;-80
2023/11/04 06:56:24;;;;;;;;;;;;;;;;;;109469;1250;61923;-80
2023/11/04 06:58:50;;;;;;;;;;;;;;;;;;109460;1251;59309;-80
2023/11/04 07:01:16;;;;;;;;;;;;;;;;;;109473;1251;59057;-80
2023/11/04 07:03:47;;;;;;;;;;;;;;;;;;109362;1251;59665;-80
2023/11/04 07:06:13;;;;;;;;;;;;;;;;;;109434;1251;59309;-80
2023/11/04 07:08:40;;;;;;;;;;;;;;;;;;109449;1254;59435;-81
2023/11/04 07:11:07;;;;;;;;;;;;;;;;;;109400;1251;59575;-80
2023/11/04 07:13:34;;;;;;;;;;;;;;;;;;109327;1251;60878;-80
2023/11/04 07:16:00;;;;;;;;;;;;;;;;;;109413;1250;59381;-81
2023/11/04 07:18:27;;;;;;;;;;;;;;;;;;109369;1251;59196;-80
2023/11/04 07:20:53;;;;;;;;;;;;;;;;;;109364;1251;59042;-81
2023/11/04 07:23:20;;;;;;;;;;;;;;;;;;109379;1250;59581;-80
2023/11/04 07:25:47;;;;;;;;;;;;;;;;;;109390;1252;60121;-81
2023/11/04 07:28:13;;;;;;;;;;;;;;;;;;109359;1251;59096;-81
2023/11/04 07:30:39;;;;;;;;;;;;;;;;;;109430;1251;59050;-81
2023/11/04 07:33:05;;;;;;;;;;;;;;;;;;109432;1251;59749;-81
2023/11/04 07:35:32;;;;;;;;;;;;;;;;;;109345;1251;59595;-81
2023/11/04 07:37:58;;;;;;;;;;;;;;;;;;109394;1251;59344;-81
2023/11/04 07:40:25;;;;;;;;;;;;;;;;;;109454;1254;59574;-81
2023/11/04 07:42:51;;;;;;;;;;;;;;;;;;109384;1251;58993;-80
2023/11/04 07:45:17;;;;;;;;;;;;;;;;;;109466;1251;59295;-81
2023/11/04 07:47:45;;;;;;;;;;;;;;;;;;109355;1253;59608;-81
2023/11/04 07:50:11;;;;;;;;;;;;;;;;;;109334;1252;59171;-81
2023/11/04 07:52:41;;;;;;;;;;;;;;;;;;109309;1253;59435;-81
2023/11/04 07:55:08;;;;;;;;;;;;;;;;;;109343;1253;59250;-81
2023/11/04 07:57:34;;;;;;;;;;;;;;;;;;109320;1255;62072;-81
2023/11/04 08:00:07;;;;;;;;;;;;;;;;;;109342;1253;59011;-81
2023/11/04 08:02:33;;;;;;;;;;;;;;;;;;109288;1251;59613;-81
2023/11/04 08:05:00;;;;;;;;;;;;;;;;;;109308;1251;59548;-81
2023/11/04 08:07:26;;;;;;;;;;;;;;;;;;109415;1251;59328;-81
2023/11/04 08:09:52;;;;;;;;;;;;;;;;;;109342;1251;59209;-82
2023/11/04 08:12:19;;;;;;;;;;;;;;;;;;109327;1254;60815;-82
2023/11/04 08:14:46;;;;;;;;;;;;;;;;;;109339;1252;59729;-81
2023/11/04 08:17:12;;;;;;;;;;;;;;;;;;109326;1255;59425;-81
2023/11/04 08:19:38;;;;;;;;;;;;;;;;;;109358;1251;59699;-81
2023/11/04 08:22:05;;;;;;;;;;;;;;;;;;109424;1254;59172;-81
2023/11/04 08:24:31;;;;;;;;;;;;;;;;;;109424;1251;59702;-81
2023/11/04 08:26:58;;;;;;;;;;;;;;;;;;109360;1254;59301;-81
2023/11/04 08:29:24;;;;;;;;;;;;;;;;;;109357;1251;59388;-81
2023/11/04 08:31:51;;;;;;;;;;;;;;;;;;109353;1251;58945;-81
2023/11/04 08:34:18;;;;;;;;;;;;;;;;;;109354;1255;59103;-81
2023/11/04 08:36:44;;;;;;;;;;;;;;;;;;109391;1251;59041;-81
2023/11/04 08:39:10;;;;;;;;;;;;;;;;;;109368;1251;59812;-81
2023/11/04 08:41:37;;;;;;;;;;;;;;;;;;109339;1251;59758;-81
2023/11/04 08:44:03;;;;;;;;;;;;;;;;;;109400;1251;59127;-81
2023/11/04 08:46:29;;;;;;;;;;;;;;;;;;109374;1251;58993;-81
2023/11/04 08:48:56;;;;;;;;;;;;;;;;;;109418;1251;59239;-81
2023/11/04 08:51:22;;;;;;;;;;;;;;;;;;109324;1251;59153;-82
2023/11/04 08:53:49;;;;;;;;;;;;;;;;;;109284;1251;59203;-81
2023/11/04 08:56:15;;;;;;;;;;;;;;;;;;109394;1251;59612;-81
2023/11/04 08:58:44;;;;;;;;;;;;;;;;;;109374;1251;59200;-82
2023/11/04 09:01:14;;;;;;;;;;;;;;;;;;109366;1251;59556;-81
2023/11/04 09:03:40;;;;;;;;;;;;;;;;;;109347;1251;59659;-81
2023/11/04 09:06:07;;;;;;;;;;;;;;;;;;109365;1250;59613;-83
2023/11/04 09:08:33;;;;;;;;;;;;;;;;;;109344;1251;59105;-81
2023/11/04 09:10:59;;;;;;;;;;;;;;;;;;109376;1251;59126;-81
2023/11/04 09:13:27;;;;;;;;;;;;;;;;;;109372;1254;59428;-82
2023/11/04 09:15:54;;;;;;;;;;;;;;;;;;109394;1251;60513;-81
2023/11/04 09:18:20;;;;;;;;;;;;;;;;;;109336;1254;58957;-81
2023/11/04 09:20:47;;;;;;;;;;;;;;;;;;109319;1251;59554;-82
2023/11/04 09:23:13;;;;;;;;;;;;;;;;;;109383;1251;59617;-81
2023/11/04 09:25:40;;;;;;;;;;;;;;;;;;109366;1251;59602;-82
2023/11/04 09:28:06;;;;;;;;;;;;;;;;;;109324;1251;59387;-81
2023/11/04 09:30:33;;;;;;;;;;;;;;;;;;109313;1251;59269;-82
2023/11/04 09:32:59;;;;;;;;;;;;;;;;;;109287;1251;59637;-81
2023/11/04 09:35:26;;;;;;;;;;;;;;;;;;109270;1251;59156;-81
2023/11/04 09:37:52;;;;;;;;;;;;;;;;;;109374;1250;59665;-81
2023/11/04 09:40:18;;;;;;;;;;;;;;;;;;109338;1251;59373;-81
2023/11/04 09:42:45;;;;;;;;;;;;;;;;;;109348;1251;60652;-81
2023/11/04 09:45:11;;;;;;;;;;;;;;;;;;109368;1251;59704;-81
2023/11/04 09:47:38;;;;;;;;;;;;;;;;;;109349;1251;59167;-81
2023/11/04 09:50:04;;;;;;;;;;;;;;;;;;109408;1250;59071;-81
2023/11/04 09:52:32;;;;;;;;;;;;;;;;;;109413;1251;59096;-81
2023/11/04 09:54:59;;;;;;;;;;;;;;;;;;109383;1251;59646;-81
2023/11/04 09:57:26;;;;;;;;;;;;;;;;;;109361;1251;59694;-81
2023/11/04 09:59:52;;;;;;;;;;;;;;;;;;109392;1251;59575;-81
2023/11/04 10:02:18;;;;;;;;;;;;;;;;;;109377;1251;59662;-81
2023/11/04 10:04:45;;;;;;;;;;;;;;;;;;109389;1251;59454;-81
2023/11/04 10:07:11;;;;;;;;;;;;;;;;;;109363;1251;59228;-81
2023/11/04 10:09:37;;;;;;;;;;;;;;;;;;109338;1251;59149;-82
2023/11/04 10:12:04;;;;;;;;;;;;;;;;;;109363;1251;59865;-81
2023/11/04 10:14:30;;;;;;;;;;;;;;;;;;109367;1251;59576;-81
2023/11/04 10:16:57;;;;;;;;;;;;;;;;;;109321;1251;59034;-81
2023/11/04 10:19:23;;;;;;;;;;;;;;;;;;109341;1251;59103;-81
2023/11/04 10:21:50;;;;;;;;;;;;;;;;;;109388;1251;59659;-81
2023/11/04 10:24:16;;;;;;;;;;;;;;;;;;109366;1251;59251;-81
2023/11/04 10:26:42;;;;;;;;;;;;;;;;;;109354;1250;59146;-81
2023/11/04 10:29:09;;;;;;;;;;;;;;;;;;109344;1251;59098;-81
2023/11/04 10:31:35;;;;;;;;;;;;;;;;;;109386;1251;59563;-81
2023/11/04 10:34:01;;;;;;;;;;;;;;;;;;109358;1251;59046;-81
2023/11/04 10:36:28;;;;;;;;;;;;;;;;;;109360;1251;59296;-81
2023/11/04 10:38:57;;;;;;;;;;;;;;;;;;109374;1251;59840;-81
2023/11/04 10:41:23;;;;;;;;;;;;;;;;;;109370;1251;59367;-81
2023/11/04 10:43:50;;;;;;;;;;;;;;;;;;109346;1251;59522;-81
2023/11/04 10:46:17;;;;;;;;;;;;;;;;;;109385;1251;59627;-81
2023/11/04 10:48:44;;;;;;;;;;;;;;;;;;109289;1253;61614;-81
2023/11/04 10:51:10;;;;;;;;;;;;;;;;;;109325;1251;59699;-81
2023/11/04 10:53:38;;;;;;;;;;;;;;;;;;109328;1251;59634;-81
2023/11/04 10:56:04;;;;;;;;;;;;;;;;;;109349;1252;59154;-81
2023/11/04 10:58:30;;;;;;;;;;;;;;;;;;109326;1252;59540;-81
2023/11/04 11:00:57;;;;;;;;;;;;;;;;;;109361;1253;59255;-81
2023/11/04 11:03:23;;;;;;;;;;;;;;;;;;109325;1253;59005;-81
2023/11/04 11:05:50;;;;;;;;;;;;;;;;;;109356;1251;59744;-81
2023/11/04 11:08:16;;;;;;;;;;;;;;;;;;109400;1251;59043;-81
2023/11/04 11:10:43;;;;;;;;;;;;;;;;;;109377;1251;59010;-81
2023/11/04 11:13:09;;;;;;;;;;;;;;;;;;109361;1251;59357;-81
2023/11/04 11:15:36;;;;;;;;;;;;;;;;;;109425;1254;59084;-81
2023/11/04 11:18:03;;;;;;;;;;;;;;;;;;109324;1251;59536;-82
2023/11/04 11:20:30;;;;;;;;;;;;;;;;;;109317;1251;59099;-81
2023/11/04 11:22:57;;;;;;;;;;;;;;;;;;109369;1251;59546;-81
2023/11/04 11:25:23;;;;;;;;;;;;;;;;;;109367;1251;59501;-81
2023/11/04 11:27:49;;;;;;;;;;;;;;;;;;109360;1251;59144;-82
2023/11/04 11:30:19;;;;;;;;;;;;;;;;;;109254;1251;60195;-81
2023/11/04 11:32:46;;;;;;;;;;;;;;;;;;109349;1251;59691;-81
2023/11/04 11:35:13;;;;;;;;;;;;;;;;;;109455;1251;58999;-82
2023/11/04 11:37:40;;;;;;;;;;;;;;;;;;109341;1251;60381;-81
2023/11/04 11:40:08;;;;;;;;;;;;;;;;;;109394;1251;58964;-81
2023/11/04 11:42:35;;;;;;;;;;;;;;;;;;109320;1251;59595;-81
2023/11/04 11:45:02;;;;;;;;;;;;;;;;;;109337;1251;59713;-81
2023/11/04 11:47:29;;;;;;;;;;;;;;;;;;109483;1251;58865;-82
2023/11/04 11:49:56;;;;;;;;;;;;;;;;;;109529;1250;58995;-81
2023/11/04 11:52:22;;;;;;;;;;;;;;;;;;109552;1251;59092;-81
2023/11/04 11:54:48;;;;;;;;;;;;;;;;;;109508;1251;59382;-82
2023/11/04 11:57:15;;;;;;;;;;;;;;;;;;109513;1251;59315;-81
2023/11/04 11:59:41;;;;;;;;;;;;;;;;;;109524;1251;59196;-81
2023/11/04 12:02:07;;;;;;;;;;;;;;;;;;109542;1250;59182;-81
2023/11/04 12:04:34;;;;;;;;;;;;;;;;;;109524;1251;59145;-81
2023/11/04 12:07:00;;;;;;;;;;;;;;;;;;109510;1251;59170;-81
2023/11/04 12:09:28;;;;;;;;;;;;;;;;;;109461;1252;59308;-81
2023/11/04 12:11:54;;;;;;;;;;;;;;;;;;109345;1251;59392;-81
2023/11/04 12:14:23;;;;;;;;;;;;;;;;;;109416;1250;59019;-81
2023/11/04 12:16:49;;;;;;;;;;;;;;;;;;109388;1250;59093;-81
2023/11/04 12:19:16;;;;;;;;;;;;;;;;;;109387;1251;59368;-82
2023/11/04 12:21:42;;;;;;;;;;;;;;;;;;109317;1251;59145;-82
2023/11/04 12:24:08;;;;;;;;;;;;;;;;;;109322;1251;59664;-81
2023/11/04 12:26:35;;;;;;;;;;;;;;;;;;109271;1251;59647;-82
2023/11/04 12:29:01;;;;;;;;;;;;;;;;;;109384;1250;59629;-81
2023/11/04 12:31:27;;;;;;;;;;;;;;;;;;109369;1251;59002;-81
2023/11/04 12:33:55;;;;;;;;;;;;;;;;;;109377;1251;59753;-81
2023/11/04 12:36:21;;;;;;;;;;;;;;;;;;109387;1251;59010;-82
2023/11/04 12:38:47;;;;;;;;;;;;;;;;;;109400;1250;59022;-81
2023/11/04 12:41:14;;;;;;;;;;;;;;;;;;109377;1250;59584;-81
2023/11/04 12:43:41;;;;;;;;;;;;;;;;;;109377;1251;59654;-81
2023/11/04 12:46:09;;;;;;;;;;;;;;;;;;109378;1251;59823;-81
2023/11/04 12:48:38;;;;;;;;;;;;;;;;;;109343;1251;59155;-81
2023/11/04 12:51:04;;;;;;;;;;;;;;;;;;109296;1253;63181;-81
2023/11/04 12:53:33;;;;;;;;;;;;;;;;;;109328;1252;59557;-81
2023/11/04 12:56:00;;;;;;;;;;;;;;;;;;109267;1253;59682;-81
2023/11/04 12:58:26;;;;;;;;;;;;;;;;;;109333;1251;59482;-81
2023/11/04 13:00:53;;;;;;;;;;;;;;;;;;109351;1251;59401;-81
2023/11/04 13:03:19;;;;;;;;;;;;;;;;;;109288;1252;59023;-82
2023/11/04 13:05:45;;;;;;;;;;;;;;;;;;109372;1251;59858;-81
2023/11/04 13:08:12;;;;;;;;;;;;;;;;;;109358;1251;59029;-81
2023/11/04 13:10:38;;;;;;;;;;;;;;;;;;109340;1251;59753;-81
2023/11/04 13:13:05;;;;;;;;;;;;;;;;;;109257;1250;168777;-82
2023/11/04 13:15:31;;;;;;;;;;;;;;;;;;109384;1250;59081;-81
2023/11/04 13:17:57;;;;;;;;;;;;;;;;;;109396;1250;59075;-81
2023/11/04 13:20:24;;;;;;;;;;;;;;;;;;109354;1251;59130;-81
2023/11/04 13:22:50;;;;;;;;;;;;;;;;;;109373;1251;59697;-82
2023/11/04 13:25:16;;;;;;;;;;;;;;;;;;109352;1251;59095;-81
2023/11/04 13:27:43;;;;;;;;;;;;;;;;;;109396;1251;59572;-81
2023/11/04 13:30:09;;;;;;;;;;;;;;;;;;109399;1251;59678;-81
2023/11/04 13:32:36;;;;;;;;;;;;;;;;;;109368;1251;59084;-81
2023/11/04 13:35:02;;;;;;;;;;;;;;;;;;109325;1251;59675;-81
2023/11/04 13:37:29;;;;;;;;;;;;;;;;;;109410;1251;60267;-81
2023/11/04 13:39:55;;;;;;;;;;;;;;;;;;109475;1250;59711;-81
2023/11/04 13:42:21;;;;;;;;;;;;;;;;;;109485;1251;59062;-81
2023/11/04 13:44:48;;;;;;;;;;;;;;;;;;109447;1250;59735;-81
2023/11/04 13:47:16;;;;;;;;;;;;;;;;;;109410;1250;59113;-81
2023/11/04 13:49:42;;;;;;;;;;;;;;;;;;109455;1251;58985;-82
2023/11/04 13:52:09;;;;;;;;;;;;;;;;;;109350;1251;59430;-82
2023/11/04 13:54:35;;;;;;;;;;;;;;;;;;109447;1250;59369;-81
2023/11/04 13:57:02;;;;;;;;;;;;;;;;;;109379;1250;59651;-81
2023/11/04 13:59:29;;;;;;;;;;;;;;;;;;109231;1250;59041;-82
2023/11/04 14:01:57;;;;;;;;;;;;;;;;;;109336;1251;59565;-81
2023/11/04 14:04:23;;;;;;;;;;;;;;;;;;109359;1250;61313;-81
2023/11/04 14:06:49;;;;;;;;;;;;;;;;;;109415;1251;59067;-81
2023/11/04 14:09:16;;;;;;;;;;;;;;;;;;109380;1251;59542;-81
2023/11/04 14:11:43;;;;;;;;;;;;;;;;;;109371;1250;59202;-81
2023/11/04 14:14:10;;;;;;;;;;;;;;;;;;109383;1250;59053;-81
2023/11/04 14:16:36;;;;;;;;;;;;;;;;;;109392;1251;59073;-81
2023/11/04 14:19:03;;;;;;;;;;;;;;;;;;109374;1250;59063;-81
2023/11/04 14:21:29;;;;;;;;;;;;;;;;;;109399;1251;59108;-81
2023/11/04 14:23:57;;;;;;;;;;;;;;;;;;109373;1250;59135;-82
2023/11/04 14:26:23;;;;;;;;;;;;;;;;;;109397;1251;59346;-81
2023/11/04 14:28:49;;;;;;;;;;;;;;;;;;109383;1251;59706;-82
2023/11/04 14:31:17;;;;;;;;;;;;;;;;;;109376;1251;58982;-81
2023/11/04 14:33:43;;;;;;;;;;;;;;;;;;109402;1251;60624;-81
2023/11/04 14:36:10;;;;;;;;;;;;;;;;;;109353;1251;59640;-81
2023/11/04 14:38:37;;;;;;;;;;;;;;;;;;109385;1251;59030;-81
2023/11/04 14:41:03;;;;;;;;;;;;;;;;;;109398;1251;63126;-81
2023/11/04 14:43:30;;;;;;;;;;;;;;;;;;109367;1250;59321;-81
2023/11/04 14:45:56;;;;;;;;;;;;;;;;;;109426;1250;59040;-81
2023/11/04 14:48:22;;;;;;;;;;;;;;;;;;109316;1251;59088;-81
2023/11/04 14:50:49;;;;;;;;;;;;;;;;;;109362;1251;59028;-81
2023/11/04 14:53:15;;;;;;;;;;;;;;;;;;109338;1251;59725;-81
2023/11/04 14:55:41;;;;;;;;;;;;;;;;;;109385;1251;59269;-81
2023/11/04 14:58:08;;;;;;;;;;;;;;;;;;109275;1252;59138;-81
2023/11/04 15:00:34;;;;;;;;;;;;;;;;;;109313;1251;59253;-81
2023/11/04 15:03:00;;;;;;;;;;;;;;;;;;109292;1252;59037;-81
2023/11/04 15:05:27;;;;;;;;;;;;;;;;;;109365;1250;59432;-81
2023/11/04 15:07:53;;;;;;;;;;;;;;;;;;109367;1251;59371;-81
2023/11/04 15:10:20;;;;;;;;;;;;;;;;;;109364;1250;59080;-81
2023/11/04 15:12:46;;;;;;;;;;;;;;;;;;109374;1251;59717;-81
2023/11/04 15:15:13;;;;;;;;;;;;;;;;;;109391;1250;59009;-81
2023/11/04 15:17:39;;;;;;;;;;;;;;;;;;109369;1251;59683;-81
2023/11/04 15:20:06;;;;;;;;;;;;;;;;;;109337;1251;59029;-81
2023/11/04 15:22:32;;;;;;;;;;;;;;;;;;109361;1251;59048;-81
2023/11/04 15:24:58;;;;;;;;;;;;;;;;;;109346;1251;59402;-81
2023/11/04 15:27:25;;;;;;;;;;;;;;;;;;109427;1251;59039;-81
2023/11/04 15:29:51;;;;;;;;;;;;;;;;;;109393;1251;59186;-81
2023/11/04 15:32:17;;;;;;;;;;;;;;;;;;109375;1251;59042;-81
2023/11/04 15:34:44;;;;;;;;;;;;;;;;;;109404;1250;59066;-81
2023/11/04 15:37:10;;;;;;;;;;;;;;;;;;109357;1251;59063;-81
2023/11/04 15:39:37;;;;;;;;;;;;;;;;;;109393;1250;59107;-81
2023/11/04 15:42:03;;;;;;;;;;;;;;;;;;109398;1251;59579;-81
2023/11/04 15:44:30;;;;;;;;;;;;;;;;;;109396;1251;59120;-81
2023/11/04 15:46:56;;;;;;;;;;;;;;;;;;109339;1251;59125;-81
2023/11/04 15:49:22;;;;;;;;;;;;;;;;;;109325;1252;59073;-81
2023/11/04 15:51:49;;;;;;;;;;;;;;;;;;109360;1251;59042;-81
2023/11/04 15:54:15;;;;;;;;;;;;;;;;;;109345;1255;59042;-81
2023/11/04 15:56:41;;;;;;;;;;;;;;;;;;109342;1251;59551;-81
2023/11/04 15:59:08;;;;;;;;;;;;;;;;;;109284;1251;59654;-81
2023/11/04 16:01:35;;;;;;;;;;;;;;;;;;109333;1251;59850;-81
2023/11/04 16:04:02;;;;;;;;;;;;;;;;;;109333;1251;59022;-81
2023/11/04 16:06:29;;;;;;;;;;;;;;;;;;109364;1251;59276;-81
2023/11/04 16:08:57;;;;;;;;;;;;;;;;;;109365;1250;59119;-81
2023/11/04 16:11:24;;;;;;;;;;;;;;;;;;109417;1251;59369;-80
2023/11/04 16:13:50;;;;;;;;;;;;;;;;;;109401;1251;59193;-81
2023/11/04 16:16:16;;;;;;;;;;;;;;;;;;109428;1251;59618;-81
2023/11/04 16:18:43;;;;;;;;;;;;;;;;;;109388;1251;59520;-81
2023/11/04 16:21:09;;;;;;;;;;;;;;;;;;109442;1250;59277;-81
2023/11/04 16:23:36;;;;;;;;;;;;;;;;;;109381;1251;59057;-81